Airport Name : Congonhas

Other Name : Congonhas

ICAO : SBSP

IATA : CGH

FAA :

Latitude : -23.626692

Longitude : -46.655375

Country : Brazil

Local Date and Time : 27 Feb 2021 22:15

 

TAF (Terminal Aerodrome Forecast)

TAF SBSP 272245Z 2800/2812 13007KT 9999 BKN020 TN19/2808Z TX22/2811Z TEMPO 2800/2802 7000 RA SCT005 BKN013 BECMG 2802/2804 8000 SCT008 BKN013 BECMG 2808/2810 9999 SCT015 RMK PGL

 

METAR (METeorological Aerodrome Report)

SBSP 280100Z 11005KT 080V140 9999 -RA FEW047 SCT050 BKN077 20/17 Q1019

SBSP 280000Z 14007KT 8000 FEW007 SCT009 BKN052 20/18 Q1018

SBSP 272300Z 13008KT 080V150 9000 SCT009 BKN011 OVC050 20/17 Q1018

SBSP 272200Z 15008KT 9000 FEW007 BKN009 OVC050 20/18 Q1017

To Charter a Jet Click here.